Time;durP1;ratioP1;P1;durP2;ratioP2;P2;SDS_P1;SDS_P2;PMS_P1;PMS_P2;Temp;Humidity;BMP_temperature;BMP_pressure;BME280_temperature;BME280_humidity;BME280_pressure;Samples;Min_cycle;Max_cycle;Signal;HPM_P1;HPM_P2
2023/08/31 00:00:11;;;;;;;7.17;2.80;;;22.70;67.10;;;23.31;47.83;94427.34;5075438;28;20589;-58
2023/08/31 00:02:40;;;;;;;5.83;2.60;;;22.70;67.50;;;23.29;48.35;94426.75;5069284;28;20482;-57
2023/08/31 00:05:09;;;;;;;3.57;2.20;;;22.70;67.70;;;23.23;48.61;94433.06;5076904;28;20932;-60
2023/08/31 00:07:36;;;;;;;3.33;2.50;;;22.60;68.10;;;23.15;48.77;94426.16;5073138;28;20512;-58
2023/08/31 00:10:09;;;;;;;4.60;2.87;;;22.60;68.60;;;23.07;48.58;94426.44;5071791;28;21037;-57
2023/08/31 00:12:37;;;;;;;5.30;2.97;;;22.50;68.90;;;22.99;49.52;94434.81;5074199;28;20532;-60
2023/08/31 00:15:06;;;;;;;3.80;1.83;;;22.50;69.30;;;22.89;49.33;94438.03;5070569;28;20557;-57
2023/08/31 00:17:33;;;;;;;4.83;2.37;;;22.40;69.40;;;22.80;49.55;94442.06;5074756;28;20442;-60
2023/08/31 00:20:02;;;;;;;5.67;2.67;;;22.30;70.40;;;22.70;49.93;94442.63;5072004;28;20550;-58
2023/08/31 00:22:29;;;;;;;6.90;2.97;;;22.20;70.90;;;22.62;50.04;94433.03;5071441;28;20560;-57
2023/08/31 00:24:57;;;;;;;3.27;2.10;;;22.10;71.30;;;22.55;50.71;94438.44;5072181;28;20466;-59
2023/08/31 00:27:24;;;;;;;6.17;3.00;;;22.00;71.60;;;22.47;50.97;94433.41;5072291;28;20480;-60
2023/08/31 00:29:51;;;;;;;13.17;3.17;;;21.90;72.00;;;22.39;50.92;94441.75;5071844;28;20498;-60
2023/08/31 00:32:19;;;;;;;8.03;2.63;;;21.90;72.50;;;22.31;51.61;94452.78;5073522;28;20456;-56
2023/08/31 00:34:46;;;;;;;3.33;2.60;;;21.80;72.80;;;22.28;51.25;94450.53;5070136;28;20580;-57
2023/08/31 00:37:15;;;;;;;3.20;2.57;;;21.70;73.00;;;22.25;51.53;94461.69;5071504;28;20455;-57
2023/08/31 00:39:43;;;;;;;5.83;2.83;;;21.70;73.60;;;22.20;51.83;94451.63;5070858;28;20470;-61
2023/08/31 00:42:10;;;;;;;4.27;2.77;;;21.70;73.70;;;22.13;51.38;94462.41;5074424;28;20546;-59
2023/08/31 00:44:38;;;;;;;6.83;2.90;;;21.60;73.70;;;22.06;52.11;94467.03;5071188;28;20467;-58
2023/08/31 00:47:05;;;;;;;7.40;2.20;;;21.50;74.00;;;22.02;52.37;94463.13;5070581;28;20531;-60
2023/08/31 00:49:33;;;;;;;2.80;2.00;;;21.50;74.30;;;21.99;52.47;94460.91;5075777;28;20585;-59
2023/08/31 00:52:00;;;;;;;2.13;1.77;;;21.50;74.90;;;21.97;52.49;94455.75;5069442;28;20451;-57
2023/08/31 00:54:29;;;;;;;5.00;2.37;;;21.40;74.80;;;21.98;52.53;94451.22;5070881;28;20483;-58
2023/08/31 00:56:57;;;;;;;2.60;2.40;;;21.40;75.20;;;21.97;52.44;94449.59;5066558;28;20527;-62
2023/08/31 00:59:26;;;;;;;4.30;2.67;;;21.40;75.50;;;21.96;52.44;94450.63;5068013;28;21034;-57
2023/08/31 01:02:01;;;;;;;6.83;2.57;;;21.40;75.90;;;21.94;52.68;94448.16;5069419;28;20520;-56
2023/08/31 01:04:33;;;;;;;6.20;2.43;;;21.40;75.90;;;21.93;53.01;94451.88;5066192;28;20498;-60
2023/08/31 01:07:04;;;;;;;8.40;2.70;;;21.40;76.30;;;21.93;53.24;94459.09;5074999;28;21028;-60
2023/08/31 01:09:40;;;;;;;3.90;2.53;;;21.40;76.50;;;21.93;53.12;94464.47;5069340;28;20478;-61
2023/08/31 01:12:10;;;;;;;7.53;3.07;;;21.30;77.00;;;21.92;52.95;94462.81;5068631;28;20473;-57
2023/08/31 01:14:43;;;;;;;5.47;2.37;;;21.40;77.10;;;21.90;53.49;94457.66;5066470;28;20510;-56
2023/08/31 01:17:10;;;;;;;4.17;2.87;;;21.40;77.40;;;21.88;53.13;94450.91;5071206;28;20519;-58
2023/08/31 01:19:49;;;;;;;2.30;2.10;;;21.40;77.60;;;21.87;53.64;94451.94;5069095;28;20910;-60
2023/08/31 01:22:26;;;;;;;6.40;2.63;;;21.40;78.10;;;21.87;53.56;94454.63;5070554;28;21027;-57
2023/08/31 01:24:55;;;;;;;2.70;1.90;;;21.30;78.20;;;21.85;53.38;94455.66;5068646;28;20906;-60
2023/08/31 01:27:22;;;;;;;4.27;2.60;;;21.30;78.60;;;21.84;53.54;94462.06;5071245;28;20928;-57
2023/08/31 01:29:49;;;;;;;3.50;2.47;;;21.30;78.70;;;21.83;53.58;94464.97;5066438;28;20498;-60
2023/08/31 01:32:17;;;;;;;6.30;2.90;;;21.30;78.50;;;21.84;53.39;94462.06;5072171;28;20451;-57
2023/08/31 01:34:44;;;;;;;8.00;3.00;;;21.30;78.50;;;21.84;53.36;94463.91;5069505;28;20553;-60
2023/08/31 01:37:15;;;;;;;3.13;2.30;;;21.30;78.60;;;21.81;53.08;94462.50;5070144;28;20454;-56
2023/08/31 01:39:47;;;;;;;4.13;2.70;;;21.30;78.60;;;21.78;53.31;94460.28;5071458;28;20476;-60
2023/08/31 01:42:17;;;;;;;11.60;2.97;;;21.30;78.70;;;21.75;53.39;94463.38;5067129;28;20446;-60
2023/08/31 01:44:44;;;;;;;6.50;2.50;;;21.20;78.50;;;21.73;53.32;94460.09;5069620;28;20923;-57
2023/08/31 01:47:11;;;;;;;5.97;2.60;;;21.20;78.90;;;21.69;53.56;94453.56;5066916;28;20540;-61
2023/08/31 01:49:39;;;;;;;8.17;2.37;;;21.20;79.00;;;21.65;53.45;94463.84;5065162;28;20857;-57
2023/08/31 01:52:06;;;;;;;4.03;2.27;;;21.10;79.20;;;21.63;53.69;94468.63;5064063;28;20481;-57
2023/08/31 01:54:34;;;;;;;7.17;2.37;;;21.10;79.40;;;21.60;53.78;94461.03;5070367;28;20504;-58
2023/08/31 01:57:02;;;;;;;4.83;2.10;;;21.10;79.70;;;21.60;53.95;94468.25;5067928;28;20512;-58
2023/08/31 01:59:31;;;;;;;3.10;2.20;;;21.10;80.10;;;21.56;53.95;94461.69;5074066;28;20474;-56
2023/08/31 02:01:58;;;;;;;2.10;1.93;;;21.00;80.20;;;21.54;54.21;94475.28;5067438;28;20508;-57
2023/08/31 02:04:25;;;;;;;7.40;2.37;;;21.00;80.60;;;21.52;53.70;94474.69;5066739;28;20474;-61
2023/08/31 02:06:53;;;;;;;2.47;1.93;;;21.00;80.80;;;21.49;54.23;94473.25;5067042;28;20847;-57
2023/08/31 02:09:20;;;;;;;8.27;2.33;;;21.00;80.90;;;21.49;53.90;94480.47;5070198;28;20483;-61
2023/08/31 02:11:48;;;;;;;4.50;2.00;;;21.00;81.70;;;21.46;54.32;94486.22;5067585;28;20975;-58
2023/08/31 02:14:15;;;;;;;5.30;2.50;;;20.90;81.00;;;21.45;53.93;94480.03;5070830;28;20490;-59
2023/08/31 02:16:44;;;;;;;5.90;2.57;;;20.90;81.20;;;21.43;54.38;94481.31;5073495;28;20453;-58
2023/08/31 02:19:11;;;;;;;4.27;2.73;;;20.90;81.70;;;21.42;54.18;94479.66;5069211;28;20471;-56
2023/08/31 02:21:40;;;;;;;4.43;2.50;;;20.90;81.70;;;21.42;54.31;94477.78;5068192;28;20451;-62
2023/08/31 02:24:08;;;;;;;7.63;2.47;;;20.90;81.80;;;21.42;54.09;94474.31;5071826;28;20474;-56
2023/08/31 02:26:37;;;;;;;2.83;2.50;;;20.90;82.00;;;21.41;54.47;94480.69;5066965;28;20871;-66
2023/08/31 02:29:04;;;;;;;8.93;2.77;;;20.80;81.70;;;21.39;54.09;94480.09;5066440;28;20510;-58
2023/08/31 02:31:31;;;;;;;6.43;2.50;;;20.80;81.50;;;21.40;54.44;94471.84;5067156;28;20571;-58
2023/08/31 02:34:00;;;;;;;4.17;2.23;;;20.90;82.00;;;21.42;54.03;94466.28;5066003;28;20478;-62
2023/08/31 02:36:27;;;;;;;2.90;2.20;;;20.90;82.00;;;21.46;54.15;94471.00;5074310;28;20718;-63
2023/08/31 02:38:53;;;;;;;4.03;2.20;;;20.90;81.80;;;21.49;53.80;94467.91;5074125;28;20473;-61
2023/08/31 02:41:21;;;;;;;6.70;2.83;;;20.90;81.60;;;21.51;53.87;94475.72;5067241;28;20466;-58
2023/08/31 02:43:51;;;;;;;3.00;2.27;;;20.90;81.30;;;21.49;54.16;94470.59;5068084;28;20483;-62
2023/08/31 02:46:19;;;;;;;5.67;2.60;;;20.90;81.00;;;21.47;53.80;94472.63;5069955;28;20470;-57
2023/08/31 02:48:46;;;;;;;4.50;1.90;;;20.90;81.80;;;21.44;53.86;94475.75;5070320;28;20507;-62
2023/08/31 02:51:16;;;;;;;4.60;3.00;;;20.90;80.90;;;21.39;54.02;94472.88;5074648;28;20491;-60
2023/08/31 02:53:43;;;;;;;3.30;3.00;;;20.90;81.40;;;21.36;53.74;94475.19;5071775;28;20466;-60
2023/08/31 02:56:10;;;;;;;6.73;3.13;;;20.80;80.60;;;21.36;53.74;94486.69;5068047;28;21246;-60
2023/08/31 02:58:37;;;;;;;8.57;3.50;;;20.90;80.80;;;21.36;53.80;94496.56;5076343;28;20490;-60
2023/08/31 03:01:10;;;;;;;5.27;2.87;;;20.80;81.00;;;21.37;53.72;94500.91;5068239;28;20462;-58
2023/08/31 03:03:38;;;;;;;5.10;2.93;;;20.80;81.00;;;21.36;53.54;94497.38;5070727;28;20820;-61
2023/08/31 03:06:07;;;;;;;4.10;2.33;;;20.80;80.60;;;21.32;53.41;94501.56;5077486;28;20887;-61
2023/08/31 03:08:36;;;;;;;5.80;2.50;;;20.80;80.60;;;21.30;53.54;94498.25;5071579;28;20474;-60
2023/08/31 03:11:03;;;;;;;2.37;1.60;;;20.80;80.60;;;21.27;53.53;94499.53;5071285;28;20494;-57
2023/08/31 03:13:31;;;;;;;3.97;2.13;;;20.80;80.60;;;21.26;53.50;94502.41;5076095;28;20465;-56
2023/08/31 03:15:59;;;;;;;3.10;2.13;;;20.70;80.90;;;21.24;53.58;94489.25;5074606;28;21009;-61
2023/08/31 03:18:26;;;;;;;6.17;2.27;;;20.70;80.60;;;21.21;53.24;94495.03;5072862;28;20474;-57
2023/08/31 03:20:53;;;;;;;2.90;1.63;;;20.70;80.40;;;21.19;53.27;94497.09;5072452;28;20866;-61
2023/08/31 03:23:20;;;;;;;5.83;2.10;;;20.70;80.10;;;21.16;53.18;94488.69;5072032;28;20483;-57
2023/08/31 03:25:49;;;;;;;2.43;1.90;;;20.70;80.20;;;21.15;53.24;94493.22;5078682;28;22016;-58
2023/08/31 03:28:16;;;;;;;3.70;1.97;;;20.70;80.10;;;21.13;52.84;94505.97;5077841;28;20562;-57
2023/08/31 03:30:44;;;;;;;3.87;2.17;;;20.60;79.50;;;21.10;53.20;94504.56;5069901;28;20528;-57
2023/08/31 03:33:12;;;;;;;13.23;2.20;;;20.60;79.80;;;21.09;53.15;94502.09;5075480;28;20561;-60
2023/08/31 03:35:39;;;;;;;9.80;2.90;;;20.60;80.10;;;21.06;53.04;94506.00;5070967;28;20494;-60
2023/08/31 03:38:06;;;;;;;3.33;2.00;;;20.60;79.90;;;21.04;53.12;94502.75;5077320;28;20966;-57
2023/08/31 03:40:34;;;;;;;3.60;1.93;;;20.50;80.00;;;21.00;53.62;94509.53;5069913;28;20467;-58
2023/08/31 03:43:03;;;;;;;4.90;2.87;;;20.50;80.30;;;20.97;53.45;94517.19;5077264;28;20533;-59
2023/08/31 03:45:30;;;;;;;3.70;2.47;;;20.50;80.30;;;20.93;53.54;94525.63;5070491;28;20509;-61
2023/08/31 03:47:57;;;;;;;8.07;2.87;;;20.40;80.40;;;20.87;53.71;94518.44;5069832;28;20469;-56
2023/08/31 03:50:25;;;;;;;16.07;5.80;;;20.40;81.00;;;20.76;53.80;94516.44;5073360;28;20943;-61
2023/08/31 03:52:52;;;;;;;3.70;2.97;;;20.30;80.80;;;20.67;54.09;94510.50;5070956;28;20955;-60
2023/08/31 03:55:20;;;;;;;6.50;3.10;;;20.20;81.60;;;20.59;54.31;94518.75;5070312;28;20459;-61
2023/08/31 03:57:47;;;;;;;5.13;2.70;;;20.20;81.70;;;20.52;54.45;94523.28;5069924;28;20532;-60
2023/08/31 04:00:16;;;;;;;3.00;2.70;;;20.10;82.20;;;20.45;54.72;94528.66;5070214;28;20477;-58
2023/08/31 04:02:44;;;;;;;6.00;3.07;;;20.00;83.00;;;20.44;55.51;94537.69;5070684;28;20451;-56
2023/08/31 04:05:13;;;;;;;6.90;3.23;;;19.90;84.50;;;20.42;55.34;94539.75;5069632;28;20564;-58
2023/08/31 04:07:41;;;;;;;6.60;2.13;;;19.90;84.20;;;20.41;55.27;94552.25;5070533;28;20848;-59
2023/08/31 04:10:09;;;;;;;5.87;2.60;;;19.90;84.90;;;20.42;55.33;94561.13;5071027;28;20470;-60
2023/08/31 04:12:36;;;;;;;3.67;2.90;;;19.90;84.70;;;20.44;55.58;94569.72;5066270;28;20571;-60
2023/08/31 04:15:04;;;;;;;12.43;2.80;;;19.90;85.30;;;20.46;55.63;94570.34;5071488;28;20467;-61
2023/08/31 04:17:33;;;;;;;3.73;2.70;;;20.00;86.20;;;20.46;55.62;94569.53;5080206;28;20565;-57
2023/08/31 04:20:00;;;;;;;8.13;3.13;;;20.00;86.10;;;20.39;55.53;94573.03;5068518;28;20904;-58
2023/08/31 04:22:27;;;;;;;17.53;4.93;;;19.90;85.90;;;20.36;55.35;94575.31;5072168;28;20465;-60
2023/08/31 04:24:54;;;;;;;8.13;3.50;;;19.90;86.10;;;20.29;55.95;94580.63;5076094;28;20913;-56
2023/08/31 04:27:21;;;;;;;5.17;3.10;;;19.80;86.70;;;20.21;56.22;94580.84;5076603;28;20554;-60
2023/08/31 04:29:48;;;;;;;13.73;3.40;;;19.70;86.50;;;20.17;56.45;94580.47;5071225;28;20547;-56
2023/08/31 04:32:16;;;;;;;5.63;3.00;;;19.70;87.50;;;20.18;56.77;94584.75;5070053;28;20578;-57
2023/08/31 04:34:44;;;;;;;7.03;2.90;;;19.70;88.40;;;20.24;56.63;94583.13;5070631;28;21049;-59
2023/08/31 04:37:12;;;;;;;6.53;3.50;;;19.70;88.90;;;20.31;56.60;94585.78;5070153;28;20454;-57
2023/08/31 04:39:39;;;;;;;11.47;3.90;;;19.80;89.20;;;20.37;56.30;94590.28;5071420;28;20506;-58
2023/08/31 04:42:06;;;;;;;9.47;3.37;;;19.90;89.30;;;20.44;56.96;94590.28;5068802;28;20450;-58
2023/08/31 04:44:34;;;;;;;15.10;4.03;;;19.90;90.00;;;20.52;56.88;94598.09;5069940;28;20471;-58
2023/08/31 04:47:01;;;;;;;9.80;3.27;;;20.00;89.80;;;20.62;56.50;94603.00;5074152;28;20459;-58
2023/08/31 04:49:29;;;;;;;10.53;3.27;;;20.10;89.70;;;20.72;56.08;94595.41;5068590;28;20860;-58
2023/08/31 04:51:57;;;;;;;5.60;3.10;;;20.20;88.80;;;20.75;55.95;94595.78;5070039;28;20494;-59
2023/08/31 04:54:25;;;;;;;9.80;3.30;;;20.30;88.30;;;20.74;55.99;94594.16;5070676;28;20486;-57
2023/08/31 04:56:52;;;;;;;8.67;3.57;;;20.30;89.00;;;20.73;55.89;94597.06;5070588;28;20538;-58
2023/08/31 04:59:19;;;;;;;12.87;4.37;;;20.20;87.80;;;20.71;56.16;94599.09;5073103;28;20900;-57
2023/08/31 05:01:47;;;;;;;19.30;4.07;;;20.20;88.50;;;20.71;56.12;94602.59;5066938;28;20458;-60
2023/08/31 05:04:14;;;;;;;15.60;3.57;;;20.30;88.80;;;20.75;56.11;94595.78;5073367;28;20478;-59
2023/08/31 05:06:41;;;;;;;7.40;3.70;;;20.30;89.00;;;20.84;56.56;94603.59;5075288;28;20808;-58
2023/08/31 05:09:10;;;;;;;8.87;3.93;;;20.30;89.80;;;20.92;56.36;94606.03;5071506;28;20485;-59
2023/08/31 05:11:37;;;;;;;12.97;4.83;;;20.40;89.60;;;20.98;56.01;94607.88;5070316;28;21015;-58
2023/08/31 05:14:04;;;;;;;7.97;4.50;;;20.50;89.00;;;21.03;55.80;94605.38;5068356;28;20481;-62
2023/08/31 05:16:32;;;;;;;13.33;4.60;;;20.50;88.30;;;21.09;55.58;94609.06;5070942;28;20458;-62
2023/08/31 05:18:59;;;;;;;10.17;5.10;;;20.60;88.40;;;21.15;55.22;94608.22;5071585;28;20462;-58
2023/08/31 05:21:26;;;;;;;17.77;4.90;;;20.60;88.60;;;21.26;55.87;94620.91;5074251;28;20530;-56
2023/08/31 05:23:53;;;;;;;7.50;3.70;;;20.70;88.70;;;21.37;55.30;94611.41;5070031;28;20907;-61
2023/08/31 05:26:22;;;;;;;9.93;4.20;;;20.80;87.80;;;21.48;54.77;94616.06;5070596;28;20465;-60
2023/08/31 05:28:49;;;;;;;6.57;3.00;;;20.90;87.10;;;21.58;54.63;94610.31;5069851;28;20486;-59
2023/08/31 05:31:17;;;;;;;14.53;4.13;;;21.00;85.90;;;21.68;54.34;94612.50;5068769;28;20490;-60
2023/08/31 05:33:44;;;;;;;6.23;3.33;;;21.10;85.30;;;21.76;53.50;94604.22;5072896;28;20485;-60
2023/08/31 05:36:11;;;;;;;6.73;4.60;;;21.20;84.50;;;21.90;53.42;94609.50;5077817;28;20843;-59
2023/08/31 05:38:39;;;;;;;6.40;4.10;;;21.30;84.40;;;22.06;54.01;94603.63;5071883;28;20490;-58
2023/08/31 05:41:07;;;;;;;9.20;3.00;;;21.40;84.20;;;22.23;53.30;94597.69;5067410;28;20538;-59
2023/08/31 05:43:39;;;;;;;15.70;3.63;;;21.60;83.20;;;22.48;52.85;94601.22;5066614;28;20462;-60
2023/08/31 05:46:07;;;;;;;10.20;2.93;;;21.80;82.80;;;22.72;52.68;94604.06;5072956;28;21402;-62
2023/08/31 05:48:34;;;;;;;16.13;3.47;;;22.00;82.20;;;22.96;51.82;94599.72;5070685;28;20930;-59
2023/08/31 05:51:01;;;;;;;6.73;3.70;;;22.30;81.30;;;23.16;51.27;94607.56;5071160;28;20955;-58
2023/08/31 05:53:29;;;;;;;6.23;2.67;;;22.50;80.30;;;23.37;50.90;94592.03;5071580;28;20936;-56
2023/08/31 05:56:03;;;;;;;4.10;2.60;;;22.70;79.30;;;23.55;50.65;94604.59;5069270;28;20450;-59
2023/08/31 05:58:30;;;;;;;5.20;2.77;;;22.90;78.20;;;23.75;50.52;94605.13;5072854;28;20459;-60
2023/08/31 06:00:59;;;;;;;17.23;4.33;;;23.10;77.60;;;23.98;49.77;94601.72;5071458;28;20474;-61
2023/08/31 06:03:26;;;;;;;15.20;4.90;;;23.30;77.50;;;24.23;49.75;94600.72;5068780;28;21458;-59
2023/08/31 06:05:53;;;;;;;15.23;3.70;;;23.50;77.00;;;24.48;49.42;94602.38;5073154;28;20936;-61
2023/08/31 06:08:21;;;;;;;17.83;3.30;;;23.80;76.90;;;24.73;48.81;94612.13;5069828;28;20508;-61
2023/08/31 06:10:48;;;;;;;9.00;3.37;;;24.00;75.60;;;24.97;48.23;94611.03;5066674;28;20539;-57
2023/08/31 06:13:15;;;;;;;8.60;3.17;;;24.20;74.70;;;25.21;47.63;94619.06;5068097;28;20501;-60
2023/08/31 06:15:44;;;;;;;13.63;4.03;;;24.40;73.60;;;25.39;47.46;94618.94;5071067;28;20461;-59
2023/08/31 06:18:13;;;;;;;24.20;4.60;;;24.70;73.20;;;25.60;47.13;94624.72;5065931;28;20485;-61
2023/08/31 06:20:40;;;;;;;13.17;3.80;;;24.80;72.70;;;25.81;46.79;94630.47;5072001;28;20453;-58
2023/08/31 06:23:07;;;;;;;18.00;2.80;;;25.10;72.00;;;26.01;46.61;94630.06;5071631;28;20461;-57
2023/08/31 06:25:34;;;;;;;16.47;3.30;;;25.20;71.50;;;26.22;46.41;94628.56;5075975;28;20461;-61
2023/08/31 06:28:02;;;;;;;22.63;4.43;;;25.40;70.90;;;26.46;46.22;94631.91;5074526;28;20461;-59
2023/08/31 06:30:29;;;;;;;17.33;3.70;;;25.70;70.20;;;26.67;45.73;94635.78;5070622;28;20454;-61
2023/08/31 06:32:57;;;;;;;17.87;3.10;;;25.90;69.30;;;26.89;44.92;94645.81;5075947;28;20559;-59
2023/08/31 06:35:25;;;;;;;10.70;2.83;;;26.10;68.40;;;27.11;44.83;94638.59;5071443;28;20476;-61
2023/08/31 06:37:55;;;;;;;15.73;3.30;;;26.30;67.40;;;27.31;44.22;94648.00;5071813;28;20528;-61
2023/08/31 06:40:22;;;;;;;6.73;2.70;;;26.50;66.40;;;27.54;43.95;94652.38;5074227;28;20459;-59
2023/08/31 06:42:49;;;;;;;10.13;3.00;;;26.70;66.00;;;27.78;43.41;94665.63;5072698;28;20563;-58
2023/08/31 06:45:17;;;;;;;20.33;3.27;;;27.00;65.10;;;28.00;42.93;94665.66;5078099;28;20446;-59
2023/08/31 06:47:44;;;;;;;5.47;2.07;;;27.20;64.50;;;28.22;42.65;94661.00;5071542;28;20453;-60
2023/08/31 06:50:12;;;;;;;14.63;2.57;;;27.40;63.60;;;28.46;42.18;94662.56;5078208;28;20911;-63
2023/08/31 06:52:41;;;;;;;22.33;3.43;;;27.70;62.60;;;28.68;41.82;94660.63;5070513;28;20493;-61
2023/08/31 06:55:10;;;;;;;6.47;3.07;;;27.90;61.70;;;28.89;41.16;94656.19;5072489;28;20568;-58
2023/08/31 06:57:37;;;;;;;10.73;2.77;;;28.10;60.80;;;29.13;40.77;94656.59;5075339;28;20565;-62
2023/08/31 07:00:08;;;;;;;7.03;1.93;;;28.30;59.40;;;29.35;39.58;94652.94;5067743;28;20485;-58
2023/08/31 07:02:35;;;;;;;6.50;2.50;;;28.50;59.30;;;29.57;39.41;94660.91;5071690;28;20527;-60
2023/08/31 07:05:03;;;;;;;4.13;2.30;;;28.80;58.90;;;29.77;39.26;94664.78;5070572;28;20555;-58
2023/08/31 07:07:31;;;;;;;2.83;1.90;;;28.90;58.30;;;29.99;39.34;94662.72;5074062;28;20472;-58
2023/08/31 07:09:59;;;;;;;10.93;2.33;;;29.20;58.00;;;30.20;38.43;94669.00;5075900;28;20531;-61
2023/08/31 07:12:27;;;;;;;3.77;2.40;;;29.40;57.50;;;30.38;38.07;94664.97;5073489;28;20589;-58
2023/08/31 07:14:54;;;;;;;6.80;2.40;;;29.50;56.80;;;30.57;38.05;94661.75;5070033;28;20220;-63
2023/08/31 07:17:21;;;;;;;11.20;3.30;;;29.70;56.20;;;30.69;38.06;94662.31;5072076;28;20462;-61
2023/08/31 07:19:48;;;;;;;3.33;2.33;;;29.90;56.30;;;30.88;37.17;94669.91;5073676;28;20635;-62
2023/08/31 07:22:15;;;;;;;5.10;2.20;;;30.00;56.10;;;31.09;37.49;94670.69;5073586;28;20192;-58
2023/08/31 07:24:43;;;;;;;10.80;2.70;;;30.20;55.80;;;31.32;37.15;94666.56;5071392;28;20224;-62
2023/08/31 07:27:11;;;;;;;6.10;2.13;;;30.50;55.40;;;31.59;36.94;94671.72;5077724;28;20287;-59
2023/08/31 07:29:39;;;;;;;4.83;2.00;;;30.70;55.10;;;31.87;36.30;94671.31;5072946;28;20224;-59
2023/08/31 07:32:06;;;;;;;9.60;2.60;;;31.00;54.60;;;32.13;35.83;94681.03;5068891;28;21407;-58
2023/08/31 07:34:35;;;;;;;6.03;2.33;;;31.30;54.10;;;32.35;35.54;94675.16;5075765;28;20244;-57
2023/08/31 07:37:02;;;;;;;10.60;3.17;;;31.50;53.60;;;32.58;35.29;94677.44;5078829;28;20668;-59
2023/08/31 07:39:30;;;;;;;5.97;2.00;;;31.70;53.10;;;32.84;35.04;94681.66;5068471;28;20226;-60
2023/08/31 07:41:59;;;;;;;2.85;2.25;;;32.00;52.80;;;33.07;34.40;94681.97;5074087;28;20204;-62
2023/08/31 07:44:27;;;;;;;6.43;2.25;;;32.20;52.20;;;33.27;34.50;94672.81;5065921;28;20228;-57
2023/08/31 07:46:54;;;;;;;9.35;2.28;;;32.40;52.00;;;33.42;33.60;94669.13;5067913;28;20211;-59
2023/08/31 07:49:22;;;;;;;6.93;2.45;;;32.50;50.90;;;33.63;33.06;94677.09;5074351;28;20239;-59
2023/08/31 07:51:49;;;;;;;11.85;2.40;;;32.70;50.60;;;33.90;33.33;94671.88;5069376;28;20208;-60
2023/08/31 07:54:21;;;;;;;8.27;2.78;;;32.90;50.60;;;34.24;32.65;94681.81;5072399;28;20495;-59
2023/08/31 07:56:48;;;;;;;4.38;2.28;;;33.30;50.10;;;34.54;32.32;94684.41;5068230;28;20291;-60
2023/08/31 07:59:15;;;;;;;3.97;2.28;;;33.60;49.90;;;34.85;32.57;94687.50;5072598;28;20584;-61
2023/08/31 08:01:44;;;;;;;5.18;2.75;;;34.00;49.30;;;35.17;31.49;94680.41;5072119;28;20261;-59
2023/08/31 08:04:12;;;;;;;11.15;2.72;;;34.40;48.60;;;35.48;31.05;94682.63;5072658;28;20223;-61
2023/08/31 08:06:39;;;;;;;8.23;3.33;;;34.80;48.10;;;35.64;30.73;94686.66;5077575;28;20620;-58
2023/08/31 08:09:06;;;;;;;8.10;2.22;;;35.10;47.00;;;35.81;30.96;94688.03;5071442;28;20231;-60
2023/08/31 08:11:35;;;;;;;2.17;2.08;;;35.20;47.20;;;36.07;30.99;94675.41;5070380;28;20204;-60
2023/08/31 08:14:02;;;;;;;7.32;2.40;;;35.50;46.70;;;36.38;30.18;94683.00;5075687;28;20243;-59
2023/08/31 08:16:30;;;;;;;9.20;2.47;;;35.70;45.70;;;36.58;29.19;94689.94;5075327;28;20195;-61
2023/08/31 08:18:58;;;;;;;3.22;2.70;;;36.00;44.80;;;36.73;29.12;94688.78;5069047;28;20247;-62
2023/08/31 08:21:26;;;;;;;8.18;3.45;;;36.30;44.80;;;36.94;28.81;94680.88;5072097;28;20264;-59
2023/08/31 08:23:53;;;;;;;15.13;3.00;;;36.50;44.20;;;37.19;28.67;94681.34;5072211;28;20217;-60
2023/08/31 08:26:20;;;;;;;3.65;3.00;;;36.80;43.60;;;37.41;27.77;94676.97;5069481;28;20602;-58
2023/08/31 08:28:47;;;;;;;12.52;4.50;;;37.10;41.80;;;37.50;25.41;94681.38;5073190;28;20665;-60
2023/08/31 08:31:14;;;;;;;9.13;4.35;;;37.20;39.20;;;37.33;24.22;94669.53;5073950;28;20277;-57
2023/08/31 08:33:42;;;;;;;4.85;4.43;;;37.10;37.10;;;37.20;24.11;94671.19;5072974;28;20579;-61
2023/08/31 08:36:10;;;;;;;6.32;3.50;;;36.90;37.10;;;37.10;25.29;94675.81;5071732;28;20625;-61
2023/08/31 08:38:37;;;;;;;14.20;3.13;;;36.80;38.30;;;37.00;26.73;94678.81;5074110;28;21080;-59
2023/08/31 08:41:07;;;;;;;3.88;2.78;;;36.60;40.50;;;36.90;26.74;94679.88;5068030;28;20203;-59
2023/08/31 08:43:35;;;;;;;14.20;4.28;;;36.40;40.90;;;36.90;27.17;94684.56;5069887;28;20912;-60
2023/08/31 08:46:06;;;;;;;5.90;3.60;;;36.30;41.30;;;36.94;26.95;94691.03;5069671;28;20725;-58
2023/08/31 08:48:34;;;;;;;6.00;3.72;;;36.20;40.90;;;36.92;27.41;94682.28;5073288;28;20228;-60
2023/08/31 08:51:03;;;;;;;6.40;3.15;;;36.20;41.40;;;36.91;27.20;94686.19;5069081;28;20269;-59
2023/08/31 08:53:32;;;;;;;5.63;4.20;;;36.10;41.20;;;36.67;25.94;94681.78;5070271;28;20658;-59
2023/08/31 08:56:00;;;;;;;5.18;4.22;;;36.00;39.00;;;36.54;24.49;94679.91;5075814;28;20661;-58
2023/08/31 08:58:27;;;;;;;4.50;3.63;;;35.90;37.80;;;36.69;25.40;94690.50;5069699;28;20227;-59
2023/08/31 09:00:56;;;;;;;9.32;4.63;;;35.90;38.60;;;36.91;24.24;94686.19;5072556;28;20200;-60
2023/08/31 09:03:24;;;;;;;5.50;3.85;;;36.00;37.60;;;37.02;24.30;94679.31;5069038;28;20662;-56
2023/08/31 09:05:51;;;;;;;4.43;4.00;;;36.10;37.50;;;37.15;24.58;94680.34;5070736;28;20202;-57
2023/08/31 09:08:18;;;;;;;8.60;4.53;;;36.30;37.70;;;37.27;23.69;94677.06;5067737;28;20772;-59
2023/08/31 09:10:47;;;;;;;7.25;4.40;;;36.30;36.70;;;37.25;25.26;94674.63;5069950;28;20196;-58
2023/08/31 09:13:15;;;;;;;7.00;3.88;;;36.40;38.70;;;37.25;25.39;94679.31;5073432;28;20305;-59
2023/08/31 09:15:45;;;;;;;8.30;4.18;;;36.40;38.60;;;37.22;25.11;94674.44;5068975;28;20291;-59
2023/08/31 09:18:17;;;;;;;6.03;5.20;;;36.40;38.70;;;37.35;25.20;94661.78;5068643;28;20228;-60
2023/08/31 09:20:47;;;;;;;5.43;3.70;;;36.50;38.80;;;37.58;24.79;94670.75;5068808;28;20269;-62
2023/08/31 09:23:15;;;;;;;4.82;3.80;;;36.60;37.60;;;37.62;24.90;94671.75;5074543;28;20223;-59
2023/08/31 09:25:48;;;;;;;5.15;4.70;;;36.70;37.90;;;37.25;24.52;94676.59;5067837;28;20215;-59
2023/08/31 09:28:15;;;;;;;4.15;3.80;;;36.50;37.50;;;37.00;24.58;94672.50;5071731;28;20227;-61
2023/08/31 09:30:43;;;;;;;10.10;4.60;;;36.30;37.50;;;36.94;25.13;94680.06;5072685;28;20264;-58
2023/08/31 09:33:10;;;;;;;4.55;4.15;;;36.20;38.00;;;36.95;24.72;94681.66;5073389;28;20243;-58
2023/08/31 09:35:41;;;;;;;6.35;4.70;;;36.10;37.60;;;37.02;24.88;94675.78;5068116;28;20229;-59
2023/08/31 09:38:11;;;;;;;6.40;4.53;;;36.20;38.10;;;37.20;24.59;94671.19;5067994;28;20291;-61
2023/08/31 09:40:39;;;;;;;6.72;4.68;;;36.30;38.00;;;37.32;24.93;94674.19;5071332;28;20207;-61
2023/08/31 09:43:08;;;;;;;5.13;4.60;;;36.40;38.00;;;37.53;24.46;94670.91;5070080;28;20294;-60
2023/08/31 09:45:35;;;;;;;5.15;4.65;;;36.60;37.60;;;37.66;24.26;94670.81;5070516;28;20207;-59
2023/08/31 09:48:03;;;;;;;7.38;4.50;;;36.70;37.30;;;37.82;24.05;94662.97;5066552;28;20211;-58
2023/08/31 09:50:31;;;;;;;5.03;4.57;;;36.80;36.80;;;38.07;23.71;94668.03;5066073;28;20261;-61
2023/08/31 09:53:03;;;;;;;5.75;4.68;;;37.10;36.50;;;38.17;23.57;94665.00;5070887;28;20869;-59
2023/08/31 09:55:31;;;;;;;8.50;4.88;;;37.20;36.00;;;38.25;23.46;94663.41;5068077;28;20196;-60
2023/08/31 09:58:00;;;;;;;5.57;4.97;;;37.30;36.20;;;38.32;23.70;94661.00;5067870;28;20204;-57
2023/08/31 10:00:30;;;;;;;6.07;5.53;;;37.30;36.40;;;38.41;23.61;94664.56;5069088;28;21019;-60
2023/08/31 10:03:01;;;;;;;4.63;4.25;;;37.40;36.40;;;38.53;22.19;94659.22;5072395;28;20204;-59
2023/08/31 10:05:28;;;;;;;4.38;3.97;;;37.60;35.20;;;38.54;23.02;94662.78;5073846;28;20195;-59
2023/08/31 10:07:55;;;;;;;7.75;5.78;;;37.70;35.90;;;38.59;23.40;94665.34;5070246;28;20573;-60
2023/08/31 10:10:23;;;;;;;5.97;5.20;;;37.70;35.70;;;38.72;22.82;94664.41;5068325;28;20199;-61
2023/08/31 10:12:51;;;;;;;9.52;4.70;;;37.80;35.00;;;38.73;21.20;94659.72;5068685;28;20244;-60
2023/08/31 10:15:18;;;;;;;5.90;5.03;;;37.80;33.40;;;38.72;22.35;94669.91;5066861;28;20732;-61
2023/08/31 10:17:47;;;;;;;6.85;5.53;;;37.80;34.40;;;38.60;22.31;94650.47;5074066;28;20408;-58
2023/08/31 10:20:17;;;;;;;9.43;4.90;;;37.80;34.30;;;38.23;22.27;94649.19;5071571;28;20221;-59